Flight Track Log - Related Links

Times and Time Zones

All times are in EDT time to prevent confusion due to time zone crossing. See the AAL376 flight status page for this flight to view local times or setup timezone preferences in your user account.

Time Position Orientation Groundspeed Altitude Reporting Facility
EDT Latitude Longitude Course Direction KTS MPH feet Rate Location/Type
Wed 09:05:51 PM 38.8773 -77.0502 319° Northwest 200 230 1,200  Level FlightAware ADS-B
Wed 09:06:13 PM 38.8924 -77.0711 313° West 248 285 1,700 1,935 Climbing FlightAware ADS-B
Wed 09:06:22 PM 38.9006 -77.0818 316° Northwest 256 295 2,200 3,667 Climbing FlightAware ADS-B (KDAA)
Wed 09:06:31 PM 38.9079 -77.0905 317° Northwest 260 299 2,800 3,600 Climbing FlightAware ADS-B
Wed 09:06:37 PM 38.9118 -77.0947 319° Northwest 262 302 3,100 4,571 Climbing FlightAware ADS-B (KDAA)
Wed 09:06:52 PM 38.9290 -77.1138 319° Northwest 257 296 4,400 4,645 Climbing FlightAware ADS-B (KDAA)
Wed 09:07:08 PM 38.9424 -77.1286 320° Northwest 253 291 5,500 3,800 Climbing FlightAware ADS-B (KDAA)
Wed 09:07:22 PM 38.9551 -77.1426 319° Northwest 260 299 6,300 3,517 Climbing FlightAware ADS-B (KDAA)
Wed 09:07:37 PM 38.9683 -77.1592 309° West 265 305 7,200 3,143 Climbing FlightAware ADS-B (KDAA)
Wed 09:07:43 PM 38.9714 -77.1666 299° West 264 304 7,400 2,727 Climbing FlightAware ADS-B (KDAA)
Wed 09:07:48 PM 38.9733 -77.1743 285° West 259 298 7,700 3,600 Climbing FlightAware ADS-B (KDAA)
Wed 09:07:53 PM 38.9738 -77.1816 274° West 253 291 8,000 3,600 Climbing FlightAware ADS-B (KDAA)
Wed 09:07:58 PM 38.9732 -77.1889 262° West 248 285 8,300 3,600 Climbing FlightAware ADS-B (KDAA)
Wed 09:08:03 PM 38.9715 -77.1960 251° West 246 283 8,600 3,600 Climbing FlightAware ADS-B (KDAA)
Wed 09:08:08 PM 38.9688 -77.2025 240° Southwest 243 280 8,900 4,000 Climbing FlightAware ADS-B (KDAA)
Wed 09:08:12 PM 38.9659 -77.2073 232° Southwest 241 277 9,200 4,667 Climbing FlightAware ADS-B (KDAA)
Wed 09:08:17 PM 38.9622 -77.2124 226° Southwest 237 273 9,600 4,000 Climbing FlightAware ADS-B (KDAA)
Wed 09:08:27 PM 38.9560 -77.2200 224° Southwest 230 265 10,200 3,771 Climbing FlightAware ADS-B
Wed 09:08:52 PM 38.9367 -77.2481 238° Southwest 237 273 11,800 3,055 Climbing FlightAware ADS-B (KDAA)
Wed 09:09:22 PM 38.9205 -77.2873 249° West 266 306 13,000 2,154 Climbing FlightAware ADS-B (KDAA)
Wed 09:09:31 PM 38.9179 -77.2980 254° West 274 315 13,200 2,400 Climbing FlightAware ADS-B
Wed 09:09:52 PM 38.9068 -77.3337 242° Southwest 285 328 14,200 2,195 Climbing FlightAware ADS-B (KDAA)
Wed 09:10:12 PM 38.8984 -77.3660 262° West 311 358 14,700 1,765 Climbing FlightAware ADS-B (KDAA)
Wed 09:10:43 PM 38.8942 -77.4263 266° West 339 390 15,700 2,000 Climbing FlightAware ADS-B (KDAA)
Wed 09:11:12 PM 38.8913 -77.4864 268° West 345 397 16,700 2,000 Climbing FlightAware ADS-B (KDAA)
Wed 09:11:19 PM 38.8908 -77.4987 267° West 344 396 16,900 600 Climbing FlightAware ADS-B
Wed 09:11:42 PM 38.8886 -77.5476 267° West 342 394 17,000 190 Climbing FlightAware ADS-B (KDAA)
Wed 09:12:22 PM 38.8840 -77.6279 266° West 348 400 17,100 1,114 Climbing FlightAware ADS-B (KDAA)
Wed 09:12:52 PM 38.8807 -77.6898 267° West 352 405 18,300 2,800 Climbing FlightAware ADS-B (KDAA)
Wed 09:13:22 PM 38.8773 -77.7544 267° West 353 406 19,900 3,100 Climbing FlightAware ADS-B (KDAA)
Wed 09:13:52 PM 38.8744 -77.8170 267° West 353 406 21,400 2,557 Climbing FlightAware ADS-B (KDAA)
Wed 09:14:23 PM 38.8712 -77.8810 267° West 359 413 22,500 2,182 Climbing FlightAware ADS-B (KDAA)
Wed 09:14:47 PM 38.8685 -77.9325 267° West 368 423 23,400 2,237 Climbing FlightAware ADS-B (KDAA)
Wed 09:15:22 PM 38.8640 -78.0093 267° West 373 429 24,700 2,270 Climbing FlightAware ADS-B (KDAA)
Wed 09:16:01 PM 38.8600 -78.0902 266° West 373 429 26,200 1,859 Climbing FlightAware ADS-B (KDAA)
Wed 09:16:33 PM 38.8547 -78.1663 266° West 384 442 26,900 1,820 Climbing FlightAware ADS-B (KDAA)
Wed 09:19:32 PM 38.8192 -78.5835 258° West 382 440 32,600 1,800 Climbing FlightAware ADS-B
Wed 09:21:33 PM 38.7764 -78.8410 258° West 368 423 35,900 1,320 Climbing FlightAware ADS-B
Wed 09:23:33 PM 38.7349 -79.0878 258° West 368 423 37,900 609 Climbing FlightAware ADS-B
Wed 09:25:00 PM 38.7077 -79.2477 258° West 362 417 38,000 50 Climbing FlightAware ADS-B
Wed 09:25:33 PM 38.6961 -79.3503 258° West 369 425 38,000  Level Washington Center
Wed 09:26:34 PM 38.6756 -79.4717 258° West 369 425 38,000  Level Washington Center
Wed 09:27:35 PM 38.6575 -79.5822 258° West 364 419 38,000  Level Washington Center
Wed 09:30:02 PM 38.5969 -79.8986 256° West 365 420 38,000  Level Indianapolis Center
Wed 09:31:03 PM 38.5764 -80.0133 257° West 365 420 38,000  Level Indianapolis Center
Wed 09:32:05 PM 38.5539 -80.1364 257° West 365 420 38,000  Level Indianapolis Center
Wed 09:33:06 PM 38.5278 -80.2803 257° West 362 417 38,000  Level Indianapolis Center
Wed 09:34:07 PM 38.5042 -80.4025 256° West 361 415 38,000  Level Indianapolis Center
Wed 09:35:09 PM 38.4811 -80.5264 257° West 362 417 38,000  Level Indianapolis Center
Wed 09:36:10 PM 38.4572 -80.6531 256° West 362 417 38,000  Level Indianapolis Center
Wed 09:37:12 PM 38.4333 -80.7792 256° West 363 418 38,000  Level Indianapolis Center
Wed 09:38:13 PM 38.4089 -80.9061 256° West 363 418 38,000  Level Indianapolis Center
Wed 09:39:14 PM 38.3839 -81.0306 256° West 363 418 38,000  Level Indianapolis Center
Wed 09:40:16 PM 38.3514 -81.1806 255° West 363 418 38,000  Level Indianapolis Center
Wed 09:41:17 PM 38.3225 -81.3022 253° West 360 414 38,000  Level Indianapolis Center
Wed 09:42:19 PM 38.2917 -81.4256 252° West 360 414 38,000  Level Indianapolis Center
Wed 09:43:20 PM 38.2617 -81.5506 253° West 363 418 38,000  Level Indianapolis Center
Wed 09:44:21 PM 38.2308 -81.6742 252° West 363 418 38,000  Level Indianapolis Center
Wed 09:45:23 PM 38.1992 -81.7969 252° West 363 418 38,000  Level Indianapolis Center
Wed 09:46:24 PM 38.1642 -81.9189 250° West 363 418 38,000  Level Indianapolis Center
Wed 09:47:25 PM 38.1303 -82.0408 251° West 363 418 38,000  Level Indianapolis Center
Wed 09:48:27 PM 38.0919 -82.1764 250° West 364 419 38,000  Level Indianapolis Center
Wed 09:49:28 PM 38.0578 -82.2975 250° West 365 420 38,000  Level Indianapolis Center
Wed 09:50:29 PM 38.0239 -82.4178 250° West 365 420 38,000  Level Indianapolis Center
Wed 09:51:31 PM 37.9881 -82.5367 249° West 364 419 38,000  Level Indianapolis Center
Wed 09:52:32 PM 37.9536 -82.6567 250° West 364 419 38,000  Level Indianapolis Center
Wed 09:53:33 PM 37.9192 -82.7767 250° West 364 419 38,000  Level Indianapolis Center
Wed 09:54:35 PM 37.8842 -82.8950 249° West 364 419 38,000  Level Indianapolis Center
Wed 09:55:36 PM 37.8494 -83.0125 250° West 362 417 38,000  Level Indianapolis Center
Wed 09:56:38 PM 37.8081 -83.1486 249° West 360 414 38,000  Level Indianapolis Center
Wed 09:57:39 PM 37.7719 -83.2672 249° West 360 414 38,000  Level Indianapolis Center
Wed 09:58:40 PM 37.7381 -83.3850 250° West 359 413 38,000  Level Indianapolis Center
Wed 09:59:42 PM 37.7039 -83.5047 250° West 360 414 38,000  Level Indianapolis Center
Wed 10:00:43 PM 37.6681 -83.6225 249° West 360 414 38,000  Level Indianapolis Center
Wed 10:01:44 PM 37.6322 -83.7406 249° West 360 414 38,000  Level Indianapolis Center
Wed 10:02:46 PM 37.5964 -83.8594 249° West 360 414 38,000  Level Indianapolis Center
Wed 10:03:47 PM 37.5547 -83.9956 249° West 360 414 38,000  Level Indianapolis Center
Wed 10:09:16 PM 37.3596 -84.6282 249° West 352 405 38,000  Level FlightAware ADS-B (KIXA)
Wed 10:10:18 PM 37.3215 -84.7495 249° West 352 405 38,000  Level FlightAware ADS-B (KIXA)
Wed 10:10:50 PM 37.3027 -84.8097 248° West 353 406 38,000  Level FlightAware ADS-B (KIXA)
Wed 10:11:25 PM 37.2815 -84.8769 249° West 355 409 38,000  Level FlightAware ADS-B (KIXA)
Wed 10:11:56 PM 37.2630 -84.9358 248° West 356 410 38,000  Level FlightAware ADS-B (KIXA)
Wed 10:12:34 PM 37.2410 -85.0054 249° West 357 411 38,000  Level FlightAware ADS-B (KIXA)
Wed 10:13:05 PM 37.2211 -85.0681 248° West 358 412 38,000  Level FlightAware ADS-B (KIXA)
Wed 10:13:50 PM 37.1933 -85.1553 248° West 360 414 38,000  Level FlightAware ADS-B (KIXA)
Wed 10:14:20 PM 37.1745 -85.2143 248° West 360 414 38,000  Level FlightAware ADS-B (KIXA)
Wed 10:15:04 PM 37.1474 -85.2992 248° West 360 414 38,000  Level FlightAware ADS-B (KIXA)
Wed 10:15:49 PM 37.1200 -85.3852 248° West 360 414 38,000  Level FlightAware ADS-B (KIXA)
Wed 10:16:20 PM 37.1021 -85.4409 248° West 359 413 38,000  Level FlightAware ADS-B (KIXA)
Wed 10:16:50 PM 37.0839 -85.4975 248° West 359 413 38,000  Level FlightAware ADS-B (KIXA)
Wed 10:17:20 PM 37.0636 -85.5604 248° West 359 413 38,000  Level FlightAware ADS-B (KIXA)
Wed 10:17:57 PM 37.0478 -85.6133 248° West 358 412 38,000  Level Memphis Center
Wed 10:18:58 PM 37.0100 -85.7286 248° West 358 412 38,000  Level Memphis Center
Wed 10:20:00 PM 36.9722 -85.8447 248° West 358 412 38,000  Level Memphis Center
Wed 10:25:49 PM 36.8369 -86.2548 248° West 357 411 38,000  Level FlightAware ADS-B (KIXA)
Wed 10:27:13 PM 36.6925 -86.6888 247° West 358 412 38,000  Level FlightAware ADS-B (KIXA)
Wed 10:27:50 PM 36.6688 -86.7591 247° West 358 412 38,000  Level FlightAware ADS-B (KIXA)
Wed 10:28:56 PM 36.6563 -86.7963 247° West 359 413 38,000  Level FlightAware ADS-B (KIXA)
Wed 10:29:31 PM 36.6043 -86.9510 247° West 358 412 38,000  Level FlightAware ADS-B (KIXA)
Wed 10:31:15 PM 36.5397 -87.1450 247° West 357 411 38,000  Level Memphis Center
Wed 10:32:16 PM 36.5008 -87.2572 247° West 357 411 38,000  Level Memphis Center
Wed 10:33:17 PM 36.4619 -87.3717 247° West 357 411 38,000  Level Memphis Center
Wed 10:34:19 PM 36.4231 -87.4842 247° West 357 411 38,000  Level Memphis Center
Wed 10:35:20 PM 36.3842 -87.5969 247° West 356 410 38,000  Level Memphis Center
Wed 10:36:21 PM 36.3450 -87.7097 247° West 355 409 38,000  Level Memphis Center
Wed 10:37:22 PM 36.3058 -87.8222 247° West 355 409 38,000  Level Memphis Center
Wed 10:38:24 PM 36.2669 -87.9344 247° West 355 409 38,000  Level Memphis Center
Wed 10:39:25 PM 36.2275 -88.0456 246° West 353 406 38,000  Level Memphis Center
Wed 10:40:26 PM 36.1875 -88.1581 246° West 353 406 38,000  Level Memphis Center
Wed 10:41:27 PM 36.1486 -88.2689 247° West 353 406 38,000  Level Memphis Center
Wed 10:42:29 PM 36.1097 -88.3800 247° West 353 406 38,000  Level Memphis Center
Wed 10:43:30 PM 36.0689 -88.4900 245° Southwest 352 405 38,000  Level Memphis Center
Wed 10:44:31 PM 36.0294 -88.6033 247° West 353 406 38,000  Level Memphis Center
Wed 10:45:32 PM 35.9897 -88.7158 246° West 354 407 38,000  Level Memphis Center
Wed 10:46:34 PM 35.9400 -88.8514 246° West 357 411 38,000  Level Memphis Center
Wed 10:47:35 PM 35.8992 -88.9656 246° West 358 412 38,000  Level Memphis Center
Wed 10:48:36 PM 35.8578 -89.0792 246° West 360 414 38,000  Level Memphis Center
Wed 10:49:37 PM 35.8169 -89.1936 246° West 360 414 38,000  Level Memphis Center
Wed 10:50:38 PM 35.7744 -89.3061 245° Southwest 360 414 38,000  Level Memphis Center
Wed 10:51:40 PM 35.7333 -89.4194 246° West 360 414 38,000  Level Memphis Center
Wed 10:52:41 PM 35.6936 -89.5322 247° West 360 414 38,000  Level Memphis Center
Wed 10:53:42 PM 35.6539 -89.6406 246° West 359 413 38,000  Level Memphis Center
Wed 10:54:43 PM 35.6125 -89.7489 245° Southwest 357 411 38,000  Level Memphis Center
Wed 10:55:45 PM 35.5725 -89.8589 246° West 356 410 38,000  Level Memphis Center
Wed 10:56:46 PM 35.5322 -89.9661 245° Southwest 353 406 38,000  Level Memphis Center
Wed 10:57:47 PM 35.4839 -90.0950 245° Southwest 352 405 38,000  Level Memphis Center
Wed 10:58:48 PM 35.4447 -90.2031 246° West 351 404 38,000  Level Memphis Center
Wed 10:59:49 PM 35.4039 -90.3103 245° Southwest 350 403 38,000  Level Memphis Center
Wed 11:00:51 PM 35.3631 -90.4172 245° Southwest 350 403 38,000  Level Memphis Center
Wed 11:01:52 PM 35.3222 -90.5261 245° Southwest 350 403 38,000  Level Memphis Center
Wed 11:02:53 PM 35.2800 -90.6336 244° Southwest 350 403 38,000  Level Memphis Center
Wed 11:03:54 PM 35.2403 -90.7408 246° West 350 403 38,000  Level Memphis Center
Wed 11:04:55 PM 35.2003 -90.8469 245° Southwest 349 402 38,000  Level Memphis Center
Wed 11:05:56 PM 35.1506 -90.9744 245° Southwest 349 402 38,000  Level Memphis Center
Wed 11:06:58 PM 35.1092 -91.0792 244° Southwest 347 399 38,000  Level Memphis Center
Wed 11:07:59 PM 35.0697 -91.1842 245° Southwest 346 398 38,000  Level Memphis Center
Wed 11:09:00 PM 35.0411 -91.2933 252° West 345 397 38,000  Level Memphis Center
Wed 11:10:01 PM 35.0111 -91.4019 251° West 342 394 38,000  Level Memphis Center
Wed 11:11:03 PM 34.9775 -91.5150 250° West 342 394 38,000  Level Memphis Center
Wed 11:12:04 PM 34.9481 -91.6233 252° West 341 392 38,000  Level Memphis Center
Wed 11:13:05 PM 34.9175 -91.7319 251° West 340 391 38,000  Level Memphis Center
Wed 11:14:06 PM 34.8853 -91.8439 251° West 343 395 38,000  Level Memphis Center
Wed 11:15:07 PM 34.8531 -91.9556 251° West 347 399 38,000  Level Memphis Center
Wed 11:16:09 PM 34.8219 -92.0669 251° West 349 402 38,000  Level Memphis Center
Wed 11:17:10 PM 34.7892 -92.1803 251° West 350 403 38,000  Level Memphis Center
Wed 11:18:11 PM 34.7575 -92.2928 251° West 350 403 38,000  Level Memphis Center
Wed 11:19:12 PM 34.7183 -92.4264 250° West 350 403 38,000  Level Memphis Center
Wed 11:20:14 PM 34.6847 -92.5383 250° West 350 403 38,000  Level Memphis Center
Wed 11:21:15 PM 34.6531 -92.6486 251° West 350 403 38,000  Level Memphis Center
Wed 11:22:16 PM 34.6211 -92.7589 251° West 350 403 38,000  Level Memphis Center
Wed 11:23:17 PM 34.5897 -92.8675 251° West 344 396 38,000  Level Memphis Center
Wed 11:28:37 PM 34.4094 -93.4714 250° West 357 411 38,000  Level FlightAware ADS-B
Wed 11:29:09 PM 34.3932 -93.5248 250° West 357 411 38,000  Level FlightAware ADS-B
Wed 11:30:08 PM 34.3651 -93.6181 250° West 357 411 38,000  Level FlightAware ADS-B
Wed 11:32:28 PM 34.2783 -93.9035 250° West 355 409 38,000  Level FlightAware ADS-B
Wed 11:32:58 PM 34.2607 -93.9605 250° West 355 409 38,000  Level FlightAware ADS-B
Wed 11:35:07 PM 34.2189 -94.0969 251° West 352 405 38,000  Level FlightAware ADS-B
Wed 11:35:48 PM 34.1650 -94.2713 250° West 354 407 38,000  Level FlightAware ADS-B
Wed 11:36:18 PM 34.1471 -94.3292 250° West 353 406 38,000  Level FlightAware ADS-B
Wed 11:37:20 PM 34.1115 -94.4441 250° West 354 407 38,000  Level FlightAware ADS-B
Wed 11:38:17 PM 34.0836 -94.5334 251° West 350 403 38,000  Level FlightAware ADS-B
Wed 11:42:09 PM 33.9447 -94.9743 250° West 350 403 38,000  Level FlightAware ADS-B
Wed 11:43:05 PM 33.9200 -95.0558 250° West 347 399 38,000  Level Fort Worth Center
Wed 11:44:06 PM 33.8847 -95.1656 249° West 349 402 38,000  Level Fort Worth Center
Wed 11:45:07 PM 33.8494 -95.2750 249° West 350 403 38,000  Level Fort Worth Center
Wed 11:46:08 PM 33.8142 -95.3831 249° West 350 403 38,000  Level Fort Worth Center
Wed 11:47:09 PM 33.7717 -95.5142 249° West 351 404 38,000 -49 Level Fort Worth Center
Wed 11:48:11 PM 33.7422 -95.6103 250° West 348 400 37,900 -2,567 Descending Fort Worth Center
Wed 11:54:12 PM 33.4941 -96.2860 225° Southwest 378 435 19,900 -2,846 Descending FlightAware ADS-B
Wed 11:56:56 PM 33.3151 -96.4991 225° Southwest 348 400 13,000 -2,223 Descending FlightAware ADS-B
Wed 11:57:56 PM 33.2576 -96.5672 224° Southwest 339 390 11,600 -1,248 Descending FlightAware ADS-B
Wed 11:58:37 PM 33.2114 -96.6220 224° Southwest 338 389 10,900 -593 Descending FlightAware ADS-B
Wed 11:59:17 PM 33.1834 -96.6551 224° Southwest 340 391 10,800 -74 Descending FlightAware ADS-B
Wed 11:59:58 PM 33.1246 -96.7245 224° Southwest 342 394 10,800  Level FlightAware ADS-B
Thu 12:00:34 AM 33.0855 -96.7705 224° Southwest 343 395 10,800  Level FlightAware ADS-B
Thu 12:00:54 AM 33.0600 -96.8005 224° Southwest 326 375 10,800  Level FlightAware ADS-B
Thu 12:01:27 AM 33.0275 -96.8385 224° Southwest 286 329 10,800  Level FlightAware ADS-B
Thu 12:01:59 AM 32.9950 -96.8768 224° Southwest 248 285 10,800 -766 Level FlightAware ADS-B
Thu 12:02:14 AM 32.9648 -96.9028 196° South 250 288 10,200 -900 Descending FlightAware ADS-B
Thu 12:02:19 AM 32.9781 -96.8958 224° Southwest 239 275 10,500  Climbing FlightAware ADS-B
Thu 12:02:27 AM 32.9658 -96.9026 198° South 249 287 10,200 -3,176 Descending FlightAware ADS-B
Thu 12:02:36 AM 32.9380 -96.9038 181° South 262 302 9,600 -2,143 Descending FlightAware ADS-B
Thu 12:02:55 AM 32.9139 -96.9043 181° South 264 304 9,200 -1,297 Descending FlightAware ADS-B
Thu 12:03:13 AM 32.9058 -96.9044 181° South 265 305 8,800 -727 Descending FlightAware ADS-B
Thu 12:03:28 AM 32.8919 -96.9047 181° South 265 305 8,800 -857 Level FlightAware ADS-B
Thu 12:03:48 AM 32.8788 -96.9051 181° South 267 307 8,300 -1,317 Descending FlightAware ADS-B
Thu 12:04:09 AM 32.8412 -96.9060 180° South 264 304 7,900 -1,034 Descending FlightAware ADS-B
Thu 12:04:17 AM 32.8367 -96.9060 360° North 262 302 7,800 -600 Descending FlightAware ADS-B
Thu 12:04:29 AM 32.8144 -96.9061 180° South 251 289 7,700 -1,125 Descending FlightAware ADS-B
Thu 12:04:49 AM 32.7907 -96.9068 181° South 241 277 7,200 -2,298 Descending FlightAware ADS-B
Thu 12:05:16 AM 32.7496 -96.9077 181° South 242 278 5,900 -2,553 Descending FlightAware ADS-B
Thu 12:05:36 AM 32.7296 -96.9096 199° South 239 275 5,200 -1,950 Descending FlightAware ADS-B
Thu 12:05:56 AM 32.7124 -96.9280 244° Southwest 217 250 4,600 -2,250 Descending FlightAware ADS-B
Thu 12:06:08 AM 32.7107 -96.9369 276° West 206 237 4,000 -1,800 Descending FlightAware ADS-B
Thu 12:06:36 AM 32.7254 -96.9671 315° West 206 237 3,400 -1,737 Descending FlightAware ADS-B
Thu 12:06:46 AM 32.7311 -96.9739 315° West 207 238 2,900 -1,231 Descending FlightAware ADS-B
Thu 12:07:15 AM 32.7515 -96.9984 315° West 195 224 2,600 -766 Descending FlightAware ADS-B
Thu 12:07:33 AM 32.7626 -97.0070 335° Northwest 183 211 2,300 -632 Descending FlightAware ADS-B
Thu 12:08:12 AM 32.7926 -97.0232 342° North 158 182 2,000 -683 Descending FlightAware ADS-B
Thu 12:09:36 AM 32.8487 -97.0264 358° North 146 168 900 -634 Descending FlightAware ADS-B
Thu 12:10:34 AM 32.8803 -97.0261 358° North 143 165 500 -414 Descending Fort Worth Center

Login

Don't have an account? Register now (free) for customized features, flight alerts, and more!